San Juan Enterprise — WDD9563 — position and weather

sailwx.info

Track history (hours):
 
Tides and Currents Weather Stations Pressure Air Temp Water Temp Dewpoint Dewpoint Depression Visibility Wind Speed Wind Dir Waves Ship Positions

San Juan Enterprise

Owner: SAN JUAN MARINE FREIGHT CO LLC, ANACORTES, WA. More information available from US FCC via Universal Licensing System and Coast Guard Vessel Documentation Center.

Last reported at 2017-Feb-27 04:30 UTC. Time now 2017-Feb-27 04:46 UTC.
Position N 48°31' W 122°36'.

Length 30 m.

MMSI: 367313160.

Date/timePositionNaut miles runAvg speedWind from/ knotsBaromVisibWave heightAir tempDewpointWater temp
2017-Feb-27 04:30N 48°31' W 122°36'0 0.0
2017-Feb-27 03:24N 48°31' W 122°36'0 0.0
2017-Feb-27 02:30N 48°31' W 122°36'0 0.0
2017-Feb-27 01:24N 48°31' W 122°36'0 0.0
2017-Feb-27 00:30N 48°31' W 122°36'0 0.0
2017-Feb-26 23:24N 48°31' W 122°36'0 0.0
2017-Feb-26 22:18N 48°31' W 122°36'0 0.0
2017-Feb-26 21:30N 48°31' W 122°36'0 0.0
2017-Feb-26 20:30N 48°31' W 122°36'0 0.0
2017-Feb-26 19:30N 48°31' W 122°36'0 0.0
2017-Feb-26 18:30N 48°31' W 122°36'0 0.0
2017-Feb-26 17:30N 48°31' W 122°36'0 0.0
2017-Feb-26 05:33N 48°31' W 122°36'0 0.0
2017-Feb-26 03:21N 48°31' W 122°36'0 0.0
2017-Feb-26 02:33N 48°31' W 122°36'0 0.0
2017-Feb-26 01:33N 48°31' W 122°36'0 0.0
2017-Feb-26 00:33N 48°31' W 122°36'0 0.0
2017-Feb-25 23:33N 48°31' W 122°36'0 0.0
2017-Feb-25 22:27N 48°31' W 122°36'0 0.0
2017-Feb-25 21:21N 48°31' W 122°36'0 0.0
2017-Feb-25 20:33N 48°31' W 122°36'0 0.0
2017-Feb-25 19:33N 48°31' W 122°36'0 0.0
2017-Feb-25 18:33N 48°31' W 122°36'0 0.0
2017-Feb-25 17:33N 48°31' W 122°36'0 0.0
2017-Feb-25 16:33N 48°31' W 122°36'0 0.0
2017-Feb-25 15:33N 48°31' W 122°36'0 0.0
2017-Feb-25 13:21N 48°31' W 122°36'0 0.0
2017-Feb-25 12:33N 48°31' W 122°36'0 0.0
2017-Feb-25 11:27N 48°31' W 122°36'0 0.0
2017-Feb-25 10:33N 48°31' W 122°36'0 0.0
2017-Feb-25 09:33N 48°31' W 122°36'0 0.0
2017-Feb-25 08:33N 48°31' W 122°36'0 0.0
2017-Feb-25 07:33N 48°31' W 122°36'0 0.0
2017-Feb-25 06:33N 48°31' W 122°36'0 0.0
2017-Feb-25 05:33N 48°31' W 122°36'0 0.0
2017-Feb-25 04:33N 48°31' W 122°36'0 0.0
2017-Feb-25 03:33N 48°31' W 122°36'0 0.0
2017-Feb-25 02:33N 48°31' W 122°36'0 0.0
2017-Feb-25 01:33N 48°31' W 122°36'0 0.0
2017-Feb-25 00:33N 48°31' W 122°36'0 0.0
2017-Feb-24 23:33N 48°31' W 122°36'1 0.6
2017-Feb-24 22:33N 48°31' W 122°36'3 2.6
2017-Feb-24 21:33N 48°32' W 122°40'8 7.5
2017-Feb-24 20:33N 48°36' W 122°49'1 1.2
2017-Feb-24 19:33N 48°35' W 122°49'0 0.0
2017-Feb-24 18:33N 48°35' W 122°49'1 1.1
2017-Feb-24 17:33N 48°36' W 122°49'5 5.4
2017-Feb-24 16:33N 48°32' W 122°43'5 4.4
2017-Feb-24 15:28N 48°31' W 122°36'0 0.0
2017-Feb-24 14:29N 48°31' W 122°36'0 0.0
2017-Feb-24 13:32N 48°31' W 122°36'0 0.0
2017-Feb-24 12:28N 48°31' W 122°36'0 0.0
2017-Feb-24 11:26N 48°31' W 122°36'0 0.0
2017-Feb-24 10:28N 48°31' W 122°36'0 0.0
2017-Feb-24 09:28N 48°31' W 122°36'0 0.0
2017-Feb-24 08:28N 48°31' W 122°36'0 0.0
2017-Feb-24 07:28N 48°31' W 122°36'0 0.0
2017-Feb-24 06:28N 48°31' W 122°36'0 0.0
2017-Feb-24 05:32N 48°31' W 122°36'0 0.0
2017-Feb-24 04:28N 48°31' W 122°36'0 0.0
2017-Feb-24 03:28N 48°31' W 122°36'0 0.0
2017-Feb-24 02:28N 48°31' W 122°36'0 0.0
2017-Feb-24 01:28N 48°31' W 122°36'0 0.0
2017-Feb-24 00:28N 48°31' W 122°36'0 0.0
2017-Feb-23 23:28N 48°31' W 122°36'0 0.0
2017-Feb-23 22:32N 48°31' W 122°36'4 4.2
2017-Feb-23 21:33N 48°31' W 122°43'8 7.7
2017-Feb-23 20:33N 48°34' W 122°54'4 3.7
2017-Feb-23 19:33N 48°31' W 122°50'4 4.1
2017-Feb-23 18:33N 48°34' W 122°53'8 8.0
2017-Feb-23 17:33N 48°32' W 122°42'4 3.7
2017-Feb-23 16:33N 48°31' W 122°36'0 0.0
2017-Feb-23 15:33N 48°31' W 122°36'0 0.0
2017-Feb-23 14:33N 48°31' W 122°36'0 0.0
2017-Feb-23 13:33N 48°31' W 122°36'0 0.0
2017-Feb-23 12:33N 48°31' W 122°36'0 0.0
2017-Feb-23 11:32N 48°31' W 122°36'0 0.0
2017-Feb-23 10:33N 48°31' W 122°36'0 0.0
2017-Feb-23 09:33N 48°31' W 122°36'0 0.0
2017-Feb-23 08:33N 48°31' W 122°36'0 0.0
2017-Feb-23 07:33N 48°31' W 122°36'0 0.0
2017-Feb-23 06:33N 48°31' W 122°36'0 0.0
2017-Feb-23 05:33N 48°31' W 122°36'0 0.0
2017-Feb-23 04:33N 48°31' W 122°36'0 0.0
2017-Feb-23 03:33N 48°31' W 122°36'0 0.0
2017-Feb-23 02:33N 48°31' W 122°36'0 0.0
2017-Feb-23 01:33N 48°31' W 122°36'0 0.0
2017-Feb-23 00:33N 48°31' W 122°36'0 0.0
2017-Feb-22 23:33N 48°31' W 122°36'7 7.1
2017-Feb-22 22:33N 48°34' W 122°46'2 2.2
2017-Feb-22 21:33N 48°35' W 122°49'2 1.6
2017-Feb-22 20:33N 48°34' W 122°50'3 2.8
2017-Feb-22 19:32N 48°31' W 122°50'6 5.7
2017-Feb-22 18:33N 48°36' W 122°49'4 3.8
2017-Feb-22 17:33N 48°34' W 122°45'6 6.0
2017-Feb-22 16:33N 48°31' W 122°36'0 0.0
2017-Feb-22 15:28N 48°31' W 122°36'0 0.0
2017-Feb-22 14:28N 48°31' W 122°36'0 0.0
2017-Feb-22 13:28N 48°31' W 122°36'0 0.0
2017-Feb-22 12:28N 48°31' W 122°36'0 0.0
2017-Feb-22 11:31N 48°31' W 122°36'0 0.0
2017-Feb-22 10:28N 48°31' W 122°36'0 0.0
2017-Feb-22 09:28N 48°31' W 122°36'0 0.0
2017-Feb-22 08:28N 48°31' W 122°36'0 0.0
2017-Feb-22 07:28N 48°31' W 122°36'0 0.0
2017-Feb-22 06:28N 48°31' W 122°36'0 0.0
2017-Feb-22 05:28N 48°31' W 122°36'0 0.0
2017-Feb-22 04:28N 48°31' W 122°36'0 0.0
2017-Feb-22 03:28N 48°31' W 122°36'0 0.0
2017-Feb-22 02:28N 48°31' W 122°36'0 0.0
2017-Feb-22 01:28N 48°31' W 122°36'0 0.0
2017-Feb-22 00:28N 48°31' W 122°36'0 0.0
2017-Feb-21 23:28N 48°31' W 122°36'0 0.0
2017-Feb-21 22:28N 48°31' W 122°36'0 0.0
2017-Feb-21 21:28N 48°31' W 122°36'0 0.0
2017-Feb-21 20:28N 48°31' W 122°36'0 0.0
2017-Feb-21 19:33N 48°31' W 122°36'6 5.8
2017-Feb-21 18:33N 48°32' W 122°45'3 3.0
2017-Feb-21 17:33N 48°33' W 122°49'6 5.7
2017-Feb-21 16:33N 48°32' W 122°41'3 2.4
2017-Feb-21 15:17N 48°31' W 122°36'0 0.0
2017-Feb-21 14:30N 48°31' W 122°36'0 0.0
2017-Feb-21 13:29N 48°31' W 122°36'0 0.0
2017-Feb-21 12:29N 48°31' W 122°36'0 0.0
2017-Feb-21 11:29N 48°31' W 122°36'0 0.0
2017-Feb-21 10:29N 48°31' W 122°36'0 0.0
2017-Feb-21 09:29N 48°31' W 122°36'0 0.0
2017-Feb-21 08:23N 48°31' W 122°36'0 0.0
2017-Feb-21 07:29N 48°31' W 122°36'0 0.0
2017-Feb-21 06:29N 48°31' W 122°36'0 0.0
2017-Feb-21 05:29N 48°31' W 122°36'0 0.0
2017-Feb-21 04:29N 48°31' W 122°36'0 0.0
2017-Feb-21 03:29N 48°31' W 122°36'0 0.0
2017-Feb-21 02:29N 48°31' W 122°36'0 0.0
2017-Feb-21 01:29N 48°31' W 122°36'0 0.0
2017-Feb-21 00:23N 48°31' W 122°36'0 0.0
2017-Feb-20 23:29N 48°31' W 122°36'0 0.0
2017-Feb-20 22:29N 48°31' W 122°36'0 0.0
2017-Feb-20 21:29N 48°31' W 122°36'0 0.0
2017-Feb-20 20:29N 48°31' W 122°36'0 0.0
2017-Feb-20 19:29N 48°31' W 122°36'0 0.0
2017-Feb-20 18:29N 48°31' W 122°36'0 0.0
2017-Feb-20 17:29N 48°31' W 122°36'0 0.0
2017-Feb-20 16:29N 48°31' W 122°36'0 0.0
2017-Feb-20 15:29N 48°31' W 122°36'0 0.0
2017-Feb-20 14:23N 48°31' W 122°36'0 0.0
2017-Feb-20 13:29N 48°31' W 122°36'0 0.0
2017-Feb-20 12:29N 48°31' W 122°36'0 0.0
2017-Feb-20 10:29N 48°31' W 122°36'0 0.0
2017-Feb-20 08:17N 48°31' W 122°36'0 0.0
2017-Feb-20 07:17N 48°31' W 122°36'0 0.0
2017-Feb-20 06:29N 48°31' W 122°36'0 0.0
2017-Feb-20 05:29N 48°31' W 122°36'0 0.0
2017-Feb-20 04:29N 48°31' W 122°36'0 0.0
2017-Feb-20 03:29N 48°31' W 122°36'0 0.0
2017-Feb-20 02:29N 48°31' W 122°36'0 0.0
2017-Feb-20 01:23N 48°31' W 122°36'0 0.0
2017-Feb-20 00:29N 48°31' W 122°36'0 0.0
2017-Feb-19 23:23N 48°31' W 122°36'0 0.0
2017-Feb-19 22:17N 48°31' W 122°36'0 0.0
2017-Feb-19 21:29N 48°31' W 122°36'0 0.0
2017-Feb-19 20:29N 48°31' W 122°36'0 0.0
2017-Feb-19 19:29N 48°31' W 122°36'0 0.0
2017-Feb-19 18:17N 48°31' W 122°36'0 0.0
2017-Feb-19 17:05N 48°31' W 122°36'0 0.0
2017-Feb-19 16:23N 48°31' W 122°36'0 0.0
2017-Feb-19 14:26N 48°31' W 122°36'0 0.0
2017-Feb-19 13:17N 48°31' W 122°36'0 0.0
2017-Feb-19 12:29N 48°31' W 122°36'0 0.0
2017-Feb-19 11:29N 48°31' W 122°36'0 0.0
2017-Feb-19 10:29N 48°31' W 122°36'0 0.0
2017-Feb-19 09:23N 48°31' W 122°36'0 0.0
2017-Feb-19 08:29N 48°31' W 122°36'0 0.0
2017-Feb-19 07:29N 48°31' W 122°36'0 0.0
2017-Feb-19 06:29N 48°31' W 122°36'0 0.0
2017-Feb-19 05:29N 48°31' W 122°36'0 0.0
2017-Feb-19 04:29N 48°31' W 122°36'0 0.0
2017-Feb-19 03:29N 48°31' W 122°36'0 0.0
2017-Feb-19 02:23N 48°31' W 122°36'0 0.0
2017-Feb-19 01:29N 48°31' W 122°36'0 0.0
2017-Feb-19 00:29N 48°31' W 122°36'0 0.0
2017-Feb-18 23:29N 48°31' W 122°36'0 0.0
2017-Feb-18 22:29N 48°31' W 122°36'0 0.0
2017-Feb-18 21:29N 48°31' W 122°36'0 0.0
2017-Feb-18 20:29N 48°31' W 122°36'0 0.0
2017-Feb-18 19:29N 48°31' W 122°36'0 0.0
2017-Feb-18 18:29N 48°31' W 122°36'0 0.0
2017-Feb-18 17:29N 48°31' W 122°36'0 0.0
2017-Feb-18 16:29N 48°31' W 122°36'0 0.0
2017-Feb-18 15:29N 48°31' W 122°36'0 0.0
2017-Feb-18 14:29N 48°31' W 122°36'0 0.0
2017-Feb-18 13:29N 48°31' W 122°36'0 0.0
2017-Feb-18 12:29N 48°31' W 122°36'0 0.0
2017-Feb-18 11:29N 48°31' W 122°36'0 0.0
2017-Feb-18 10:29N 48°31' W 122°36'0 0.0
2017-Feb-18 09:29N 48°31' W 122°36'0 0.0
2017-Feb-18 08:29N 48°31' W 122°36'0 0.0
2017-Feb-18 07:29N 48°31' W 122°36'0 0.0
2017-Feb-18 06:29N 48°31' W 122°36'0 0.0
2017-Feb-18 05:29N 48°31' W 122°36'0 0.0
2017-Feb-18 04:29N 48°31' W 122°36'0 0.0
2017-Feb-18 03:29N 48°31' W 122°36'0 0.0
2017-Feb-18 02:29N 48°31' W 122°36'0 0.0
2017-Feb-18 01:29N 48°31' W 122°36'0 0.0
2017-Feb-18 00:29N 48°31' W 122°36'0 0.0
2017-Feb-17 23:29N 48°31' W 122°36'0 0.0
2017-Feb-17 22:29N 48°31' W 122°36'0 0.0
2017-Feb-17 21:29N 48°31' W 122°36'3 3.0
2017-Feb-17 20:33N 48°31' W 122°40'6 5.9
2017-Feb-17 19:33N 48°32' W 122°49'2 2.3
2017-Feb-17 18:33N 48°35' W 122°50'2 2.4
2017-Feb-17 17:33N 48°34' W 122°46'1 1.3
2017-Feb-17 16:33N 48°33' W 122°45'6 5.3
2017-Feb-17 15:27N 48°31' W 122°36'0 0.0
2017-Feb-17 14:28N 48°31' W 122°36'0 0.0
2017-Feb-17 13:33N 48°31' W 122°36'0 0.0
2017-Feb-17 12:33N 48°31' W 122°36'0 0.0
2017-Feb-17 11:27N 48°31' W 122°36'0 0.0
2017-Feb-17 10:27N 48°31' W 122°36'0 0.0
2017-Feb-17 09:33N 48°31' W 122°36'0 0.0
2017-Feb-17 08:33N 48°31' W 122°36'0 0.0
2017-Feb-17 07:33N 48°31' W 122°36'0 0.0
2017-Feb-17 06:33N 48°31' W 122°36'0 0.0
2017-Feb-17 05:33N 48°31' W 122°36'0 0.0
2017-Feb-17 04:33N 48°31' W 122°36'  
Track history (hours):
 
Tides and Currents Weather Stations Pressure Air Temp Water Temp Dewpoint Dewpoint Depression Visibility Wind Speed Wind Dir Waves Ship Positions

San Juan Enterprise

Owner: SAN JUAN MARINE FREIGHT CO LLC, ANACORTES, WA. More information available from US FCC via Universal Licensing System and Coast Guard Vessel Documentation Center.

Last reported at 2017-Feb-27 04:30 UTC. Time now 2017-Feb-27 04:46 UTC.
Position N 48°31' W 122°36'.

Length 30 m.

MMSI: 367313160.

Date/timePositionNaut miles runAvg speedWind from/ knotsBaromVisibWave heightAir tempDewpointWater temp
2017-Feb-27 04:30N 48°31' W 122°36'0 0.0
2017-Feb-27 03:24N 48°31' W 122°36'0 0.0
2017-Feb-27 02:30N 48°31' W 122°36'0 0.0
2017-Feb-27 01:24N 48°31' W 122°36'0 0.0
2017-Feb-27 00:30N 48°31' W 122°36'0 0.0
2017-Feb-26 23:24N 48°31' W 122°36'0 0.0
2017-Feb-26 22:18N 48°31' W 122°36'0 0.0
2017-Feb-26 21:30N 48°31' W 122°36'0 0.0
2017-Feb-26 20:30N 48°31' W 122°36'0 0.0
2017-Feb-26 19:30N 48°31' W 122°36'0 0.0
2017-Feb-26 18:30N 48°31' W 122°36'0 0.0
2017-Feb-26 17:30N 48°31' W 122°36'0 0.0
2017-Feb-26 05:33N 48°31' W 122°36'0 0.0
2017-Feb-26 03:21N 48°31' W 122°36'0 0.0
2017-Feb-26 02:33N 48°31' W 122°36'0 0.0
2017-Feb-26 01:33N 48°31' W 122°36'0 0.0
2017-Feb-26 00:33N 48°31' W 122°36'0 0.0
2017-Feb-25 23:33N 48°31' W 122°36'0 0.0
2017-Feb-25 22:27N 48°31' W 122°36'0 0.0
2017-Feb-25 21:21N 48°31' W 122°36'0 0.0
2017-Feb-25 20:33N 48°31' W 122°36'0 0.0
2017-Feb-25 19:33N 48°31' W 122°36'0 0.0
2017-Feb-25 18:33N 48°31' W 122°36'0 0.0
2017-Feb-25 17:33N 48°31' W 122°36'0 0.0
2017-Feb-25 16:33N 48°31' W 122°36'0 0.0
2017-Feb-25 15:33N 48°31' W 122°36'0 0.0
2017-Feb-25 13:21N 48°31' W 122°36'0 0.0
2017-Feb-25 12:33N 48°31' W 122°36'0 0.0
2017-Feb-25 11:27N 48°31' W 122°36'0 0.0
2017-Feb-25 10:33N 48°31' W 122°36'0 0.0
2017-Feb-25 09:33N 48°31' W 122°36'0 0.0
2017-Feb-25 08:33N 48°31' W 122°36'0 0.0
2017-Feb-25 07:33N 48°31' W 122°36'0 0.0
2017-Feb-25 06:33N 48°31' W 122°36'0 0.0
2017-Feb-25 05:33N 48°31' W 122°36'0 0.0
2017-Feb-25 04:33N 48°31' W 122°36'0 0.0
2017-Feb-25 03:33N 48°31' W 122°36'0 0.0
2017-Feb-25 02:33N 48°31' W 122°36'0 0.0
2017-Feb-25 01:33N 48°31' W 122°36'0 0.0
2017-Feb-25 00:33N 48°31' W 122°36'0 0.0
2017-Feb-24 23:33N 48°31' W 122°36'1 0.6
2017-Feb-24 22:33N 48°31' W 122°36'3 2.6
2017-Feb-24 21:33N 48°32' W 122°40'8 7.5
2017-Feb-24 20:33N 48°36' W 122°49'1 1.2
2017-Feb-24 19:33N 48°35' W 122°49'0 0.0
2017-Feb-24 18:33N 48°35' W 122°49'1 1.1
2017-Feb-24 17:33N 48°36' W 122°49'5 5.4
2017-Feb-24 16:33N 48°32' W 122°43'5 4.4
2017-Feb-24 15:28N 48°31' W 122°36'0 0.0
2017-Feb-24 14:29N 48°31' W 122°36'0 0.0
2017-Feb-24 13:32N 48°31' W 122°36'0 0.0
2017-Feb-24 12:28N 48°31' W 122°36'0 0.0
2017-Feb-24 11:26N 48°31' W 122°36'0 0.0
2017-Feb-24 10:28N 48°31' W 122°36'0 0.0
2017-Feb-24 09:28N 48°31' W 122°36'0 0.0
2017-Feb-24 08:28N 48°31' W 122°36'0 0.0
2017-Feb-24 07:28N 48°31' W 122°36'0 0.0
2017-Feb-24 06:28N 48°31' W 122°36'0 0.0
2017-Feb-24 05:32N 48°31' W 122°36'0 0.0
2017-Feb-24 04:28N 48°31' W 122°36'0 0.0
2017-Feb-24 03:28N 48°31' W 122°36'0 0.0
2017-Feb-24 02:28N 48°31' W 122°36'0 0.0
2017-Feb-24 01:28N 48°31' W 122°36'0 0.0
2017-Feb-24 00:28N 48°31' W 122°36'0 0.0
2017-Feb-23 23:28N 48°31' W 122°36'0 0.0
2017-Feb-23 22:32N 48°31' W 122°36'4 4.2
2017-Feb-23 21:33N 48°31' W 122°43'8 7.7
2017-Feb-23 20:33N 48°34' W 122°54'4 3.7
2017-Feb-23 19:33N 48°31' W 122°50'4 4.1
2017-Feb-23 18:33N 48°34' W 122°53'8 8.0
2017-Feb-23 17:33N 48°32' W 122°42'4 3.7
2017-Feb-23 16:33N 48°31' W 122°36'0 0.0
2017-Feb-23 15:33N 48°31' W 122°36'0 0.0
2017-Feb-23 14:33N 48°31' W 122°36'0 0.0
2017-Feb-23 13:33N 48°31' W 122°36'0 0.0
2017-Feb-23 12:33N 48°31' W 122°36'0 0.0
2017-Feb-23 11:32N 48°31' W 122°36'0 0.0
2017-Feb-23 10:33N 48°31' W 122°36'0 0.0
2017-Feb-23 09:33N 48°31' W 122°36'0 0.0
2017-Feb-23 08:33N 48°31' W 122°36'0 0.0
2017-Feb-23 07:33N 48°31' W 122°36'0 0.0
2017-Feb-23 06:33N 48°31' W 122°36'0 0.0
2017-Feb-23 05:33N 48°31' W 122°36'0 0.0
2017-Feb-23 04:33N 48°31' W 122°36'0 0.0
2017-Feb-23 03:33N 48°31' W 122°36'0 0.0
2017-Feb-23 02:33N 48°31' W 122°36'0 0.0
2017-Feb-23 01:33N 48°31' W 122°36'0 0.0
2017-Feb-23 00:33N 48°31' W 122°36'0 0.0
2017-Feb-22 23:33N 48°31' W 122°36'7 7.1
2017-Feb-22 22:33N 48°34' W 122°46'2 2.2
2017-Feb-22 21:33N 48°35' W 122°49'2 1.6
2017-Feb-22 20:33N 48°34' W 122°50'3 2.8
2017-Feb-22 19:32N 48°31' W 122°50'6 5.7
2017-Feb-22 18:33N 48°36' W 122°49'4 3.8
2017-Feb-22 17:33N 48°34' W 122°45'6 6.0
2017-Feb-22 16:33N 48°31' W 122°36'0 0.0
2017-Feb-22 15:28N 48°31' W 122°36'0 0.0
2017-Feb-22 14:28N 48°31' W 122°36'0 0.0
2017-Feb-22 13:28N 48°31' W 122°36'0 0.0
2017-Feb-22 12:28N 48°31' W 122°36'0 0.0
2017-Feb-22 11:31N 48°31' W 122°36'0 0.0
2017-Feb-22 10:28N 48°31' W 122°36'0 0.0
2017-Feb-22 09:28N 48°31' W 122°36'0 0.0
2017-Feb-22 08:28N 48°31' W 122°36'0 0.0
2017-Feb-22 07:28N 48°31' W 122°36'0 0.0
2017-Feb-22 06:28N 48°31' W 122°36'0 0.0
2017-Feb-22 05:28N 48°31' W 122°36'0 0.0
2017-Feb-22 04:28N 48°31' W 122°36'0 0.0
2017-Feb-22 03:28N 48°31' W 122°36'0 0.0
2017-Feb-22 02:28N 48°31' W 122°36'0 0.0
2017-Feb-22 01:28N 48°31' W 122°36'0 0.0
2017-Feb-22 00:28N 48°31' W 122°36'0 0.0
2017-Feb-21 23:28N 48°31' W 122°36'0 0.0
2017-Feb-21 22:28N 48°31' W 122°36'0 0.0
2017-Feb-21 21:28N 48°31' W 122°36'0 0.0
2017-Feb-21 20:28N 48°31' W 122°36'0 0.0
2017-Feb-21 19:33N 48°31' W 122°36'6 5.8
2017-Feb-21 18:33N 48°32' W 122°45'3 3.0
2017-Feb-21 17:33N 48°33' W 122°49'6 5.7
2017-Feb-21 16:33N 48°32' W 122°41'3 2.4
2017-Feb-21 15:17N 48°31' W 122°36'0 0.0
2017-Feb-21 14:30N 48°31' W 122°36'0 0.0
2017-Feb-21 13:29N 48°31' W 122°36'0 0.0
2017-Feb-21 12:29N 48°31' W 122°36'0 0.0
2017-Feb-21 11:29N 48°31' W 122°36'0 0.0
2017-Feb-21 10:29N 48°31' W 122°36'0 0.0
2017-Feb-21 09:29N 48°31' W 122°36'0 0.0
2017-Feb-21 08:23N 48°31' W 122°36'0 0.0
2017-Feb-21 07:29N 48°31' W 122°36'0 0.0
2017-Feb-21 06:29N 48°31' W 122°36'0 0.0
2017-Feb-21 05:29N 48°31' W 122°36'0 0.0
2017-Feb-21 04:29N 48°31' W 122°36'0 0.0
2017-Feb-21 03:29N 48°31' W 122°36'0 0.0
2017-Feb-21 02:29N 48°31' W 122°36'0 0.0
2017-Feb-21 01:29N 48°31' W 122°36'0 0.0
2017-Feb-21 00:23N 48°31' W 122°36'0 0.0
2017-Feb-20 23:29N 48°31' W 122°36'0 0.0
2017-Feb-20 22:29N 48°31' W 122°36'0 0.0
2017-Feb-20 21:29N 48°31' W 122°36'0 0.0
2017-Feb-20 20:29N 48°31' W 122°36'0 0.0
2017-Feb-20 19:29N 48°31' W 122°36'0 0.0
2017-Feb-20 18:29N 48°31' W 122°36'0 0.0
2017-Feb-20 17:29N 48°31' W 122°36'0 0.0
2017-Feb-20 16:29N 48°31' W 122°36'0 0.0
2017-Feb-20 15:29N 48°31' W 122°36'0 0.0
2017-Feb-20 14:23N 48°31' W 122°36'0 0.0
2017-Feb-20 13:29N 48°31' W 122°36'0 0.0
2017-Feb-20 12:29N 48°31' W 122°36'0 0.0
2017-Feb-20 10:29N 48°31' W 122°36'0 0.0
2017-Feb-20 08:17N 48°31' W 122°36'0 0.0
2017-Feb-20 07:17N 48°31' W 122°36'0 0.0
2017-Feb-20 06:29N 48°31' W 122°36'0 0.0
2017-Feb-20 05:29N 48°31' W 122°36'0 0.0
2017-Feb-20 04:29N 48°31' W 122°36'0 0.0
2017-Feb-20 03:29N 48°31' W 122°36'0 0.0
2017-Feb-20 02:29N 48°31' W 122°36'0 0.0
2017-Feb-20 01:23N 48°31' W 122°36'0 0.0
2017-Feb-20 00:29N 48°31' W 122°36'0 0.0
2017-Feb-19 23:23N 48°31' W 122°36'0 0.0
2017-Feb-19 22:17N 48°31' W 122°36'0 0.0
2017-Feb-19 21:29N 48°31' W 122°36'0 0.0
2017-Feb-19 20:29N 48°31' W 122°36'0 0.0
2017-Feb-19 19:29N 48°31' W 122°36'0 0.0
2017-Feb-19 18:17N 48°31' W 122°36'0 0.0
2017-Feb-19 17:05N 48°31' W 122°36'0 0.0
2017-Feb-19 16:23N 48°31' W 122°36'0 0.0
2017-Feb-19 14:26N 48°31' W 122°36'0 0.0
2017-Feb-19 13:17N 48°31' W 122°36'0 0.0
2017-Feb-19 12:29N 48°31' W 122°36'0 0.0
2017-Feb-19 11:29N 48°31' W 122°36'0 0.0
2017-Feb-19 10:29N 48°31' W 122°36'0 0.0
2017-Feb-19 09:23N 48°31' W 122°36'0 0.0
2017-Feb-19 08:29N 48°31' W 122°36'0 0.0
2017-Feb-19 07:29N 48°31' W 122°36'0 0.0
2017-Feb-19 06:29N 48°31' W 122°36'0 0.0
2017-Feb-19 05:29N 48°31' W 122°36'0 0.0
2017-Feb-19 04:29N 48°31' W 122°36'0 0.0
2017-Feb-19 03:29N 48°31' W 122°36'0 0.0
2017-Feb-19 02:23N 48°31' W 122°36'0 0.0
2017-Feb-19 01:29N 48°31' W 122°36'0 0.0
2017-Feb-19 00:29N 48°31' W 122°36'0 0.0
2017-Feb-18 23:29N 48°31' W 122°36'0 0.0
2017-Feb-18 22:29N 48°31' W 122°36'0 0.0
2017-Feb-18 21:29N 48°31' W 122°36'0 0.0
2017-Feb-18 20:29N 48°31' W 122°36'0 0.0
2017-Feb-18 19:29N 48°31' W 122°36'0 0.0
2017-Feb-18 18:29N 48°31' W 122°36'0 0.0
2017-Feb-18 17:29N 48°31' W 122°36'0 0.0
2017-Feb-18 16:29N 48°31' W 122°36'0 0.0
2017-Feb-18 15:29N 48°31' W 122°36'0 0.0
2017-Feb-18 14:29N 48°31' W 122°36'0 0.0
2017-Feb-18 13:29N 48°31' W 122°36'0 0.0
2017-Feb-18 12:29N 48°31' W 122°36'0 0.0
2017-Feb-18 11:29N 48°31' W 122°36'0 0.0
2017-Feb-18 10:29N 48°31' W 122°36'0 0.0
2017-Feb-18 09:29N 48°31' W 122°36'0 0.0
2017-Feb-18 08:29N 48°31' W 122°36'0 0.0
2017-Feb-18 07:29N 48°31' W 122°36'0 0.0
2017-Feb-18 06:29N 48°31' W 122°36'0 0.0
2017-Feb-18 05:29N 48°31' W 122°36'0 0.0
2017-Feb-18 04:29N 48°31' W 122°36'0 0.0
2017-Feb-18 03:29N 48°31' W 122°36'0 0.0
2017-Feb-18 02:29N 48°31' W 122°36'0 0.0
2017-Feb-18 01:29N 48°31' W 122°36'0 0.0
2017-Feb-18 00:29N 48°31' W 122°36'0 0.0
2017-Feb-17 23:29N 48°31' W 122°36'0 0.0
2017-Feb-17 22:29N 48°31' W 122°36'0 0.0
2017-Feb-17 21:29N 48°31' W 122°36'3 3.0
2017-Feb-17 20:33N 48°31' W 122°40'6 5.9
2017-Feb-17 19:33N 48°32' W 122°49'2 2.3
2017-Feb-17 18:33N 48°35' W 122°50'2 2.4
2017-Feb-17 17:33N 48°34' W 122°46'1 1.3
2017-Feb-17 16:33N 48°33' W 122°45'6 5.3
2017-Feb-17 15:27N 48°31' W 122°36'0 0.0
2017-Feb-17 14:28N 48°31' W 122°36'0 0.0
2017-Feb-17 13:33N 48°31' W 122°36'0 0.0
2017-Feb-17 12:33N 48°31' W 122°36'0 0.0
2017-Feb-17 11:27N 48°31' W 122°36'0 0.0
2017-Feb-17 10:27N 48°31' W 122°36'0 0.0
2017-Feb-17 09:33N 48°31' W 122°36'0 0.0
2017-Feb-17 08:33N 48°31' W 122°36'0 0.0
2017-Feb-17 07:33N 48°31' W 122°36'0 0.0
2017-Feb-17 06:33N 48°31' W 122°36'0 0.0
2017-Feb-17 05:33N 48°31' W 122°36'0 0.0
2017-Feb-17 04:33N 48°31' W 122°36'  

Dump ship's entire track history